createdAt,value
2019-05-17T00:01:16.610Z,9.52
2019-05-17T00:03:46.959Z,9.58
2019-05-17T00:06:16.908Z,9.55
2019-05-17T00:08:47.114Z,9.51
2019-05-17T00:11:16.663Z,9.41
2019-05-17T00:13:46.495Z,9.56
2019-05-17T00:16:14.267Z,9.48
2019-05-17T00:18:42.432Z,9.55
2019-05-17T00:21:10.583Z,9.54
2019-05-17T00:23:38.746Z,9.44
2019-05-17T00:26:07.263Z,9.52
2019-05-17T00:28:37.494Z,9.51
2019-05-17T00:31:06.617Z,9.57
2019-05-17T00:33:36.708Z,9.53
2019-05-17T00:36:07.046Z,9.51
2019-05-17T00:38:47.535Z,9.31
2019-05-17T00:41:06.916Z,9.34
2019-05-17T00:43:36.693Z,8.99
2019-05-17T00:46:06.595Z,8.91
2019-05-17T00:48:34.317Z,8.73
2019-05-17T00:51:02.673Z,9.05
2019-05-17T00:53:31.085Z,8.95
2019-05-17T00:55:59.809Z,8.90
2019-05-17T00:58:27.961Z,9.16
2019-05-17T01:00:57.099Z,9.27
2019-05-17T01:03:26.994Z,9.11
2019-05-17T01:05:56.735Z,8.56
2019-05-17T01:08:26.570Z,8.46
2019-05-17T01:10:56.588Z,8.84
2019-05-17T01:13:26.722Z,9.32
2019-05-17T01:15:56.619Z,9.46
2019-05-17T01:18:26.773Z,9.44
2019-05-17T01:20:56.666Z,9.13
2019-05-17T01:23:24.401Z,8.87
2019-05-17T01:25:52.519Z,8.51
2019-05-17T01:28:20.660Z,8.29
2019-05-17T01:30:48.811Z,8.54
2019-05-17T01:33:17.256Z,8.74
2019-05-17T01:35:46.586Z,9.01
2019-05-17T01:38:14.847Z,9.16
2019-05-17T01:40:43.077Z,8.89
2019-05-17T01:43:11.187Z,8.45
2019-05-17T01:45:39.348Z,8.49
2019-05-17T01:48:07.632Z,8.59
2019-05-17T01:50:37.346Z,8.71
2019-05-17T01:53:07.407Z,9.32
2019-05-17T01:55:37.561Z,9.29
2019-05-17T01:58:07.249Z,9.41
2019-05-17T02:00:37.578Z,9.55
2019-05-17T02:03:07.069Z,9.30
2019-05-17T02:05:37.325Z,9.32
2019-05-17T02:08:06.592Z,9.39
2019-05-17T02:10:37.288Z,9.45
2019-05-17T02:13:06.559Z,9.37
2019-05-17T02:15:37.472Z,9.39
2019-05-17T02:18:07.064Z,9.32
2019-05-17T02:20:37.401Z,9.34
2019-05-17T02:23:07.019Z,9.36
2019-05-17T02:25:36.884Z,9.33
2019-05-17T02:28:04.533Z,9.36
2019-05-17T02:30:33.710Z,9.29
2019-05-17T02:33:03.803Z,9.34
2019-05-17T02:35:33.603Z,9.33
2019-05-17T02:38:02.927Z,9.10
2019-05-17T02:40:34.175Z,8.94
2019-05-17T02:43:03.108Z,9.38
2019-05-17T02:45:32.780Z,9.11
2019-05-17T02:48:03.611Z,8.82
2019-05-17T02:50:33.155Z,9.06
2019-05-17T02:53:03.919Z,9.03
2019-05-17T02:55:32.407Z,9.24
2019-05-17T02:58:02.893Z,9.39
2019-05-17T03:00:34.028Z,9.51
2019-05-17T03:03:03.470Z,9.11
2019-05-17T03:05:33.427Z,9.07
2019-05-17T03:08:03.640Z,9.12
2019-05-17T03:10:33.212Z,8.84
2019-05-17T03:12:59.796Z,8.64
2019-05-17T03:15:27.925Z,9.00
2019-05-17T03:17:56.010Z,8.96
2019-05-17T03:20:24.204Z,8.83
2019-05-17T03:22:52.798Z,8.75
2019-05-17T03:25:23.891Z,8.70
2019-05-17T03:27:53.657Z,8.94
2019-05-17T03:30:25.900Z,9.22
2019-05-17T03:32:56.225Z,9.03
2019-05-17T03:35:25.705Z,9.00
2019-05-17T03:37:53.255Z,9.33
2019-05-17T03:40:36.421Z,9.23
2019-05-17T03:42:53.546Z,9.15
2019-05-17T03:45:22.809Z,9.22
2019-05-17T03:47:52.998Z,9.06
2019-05-17T03:50:22.667Z,9.17
2019-05-17T03:52:53.294Z,9.35
2019-05-17T03:55:19.725Z,9.26
2019-05-17T03:57:47.915Z,9.41
2019-05-17T04:00:16.697Z,9.39
2019-05-17T04:02:45.072Z,9.27
2019-05-17T04:05:13.661Z,9.06
2019-05-17T04:07:43.519Z,9.23
2019-05-17T04:10:15.167Z,8.99
2019-05-17T04:12:43.912Z,8.82
2019-05-17T04:15:13.391Z,8.83
2019-05-17T04:17:44.001Z,9.22
2019-05-17T04:20:13.547Z,9.27
2019-05-17T04:22:44.127Z,9.42
2019-05-17T04:25:13.449Z,8.97
2019-05-17T04:27:43.620Z,8.65
2019-05-17T04:30:12.605Z,9.00
2019-05-17T04:32:43.628Z,9.21
2019-05-17T04:35:12.970Z,9.27
2019-05-17T04:37:43.880Z,9.03
2019-05-17T04:40:13.938Z,9.09
2019-05-17T04:42:43.929Z,8.81
2019-05-17T04:45:12.683Z,6.47
2019-05-17T04:47:44.262Z,9.18
2019-05-17T04:50:13.445Z,9.09
2019-05-17T04:52:42.923Z,9.16
2019-05-17T04:55:13.381Z,9.05
2019-05-17T04:57:43.926Z,9.21
2019-05-17T05:00:12.882Z,9.28
2019-05-17T05:02:43.689Z,9.03
2019-05-17T05:05:13.416Z,8.99
2019-05-17T05:07:43.138Z,9.02
2019-05-17T05:10:13.430Z,9.01
2019-05-17T05:12:43.454Z,9.10
2019-05-17T05:15:12.172Z,9.08
2019-05-17T05:17:42.542Z,9.19
2019-05-17T05:20:13.240Z,9.23
2019-05-17T05:22:42.624Z,9.26
2019-05-17T05:25:12.405Z,9.31
2019-05-17T05:27:42.293Z,9.27
2019-05-17T05:30:12.075Z,9.36
2019-05-17T05:32:39.424Z,9.35
2019-05-17T05:35:08.195Z,9.45
2019-05-17T05:37:36.357Z,9.60
2019-05-17T05:40:05.471Z,9.54
2019-05-17T05:42:33.688Z,9.56
2019-05-17T05:45:03.142Z,9.58
2019-05-17T05:47:32.373Z,9.58
2019-05-17T05:50:01.820Z,9.59
2019-05-17T05:52:32.257Z,9.68
2019-05-17T05:55:01.535Z,9.60
2019-05-17T05:57:32.063Z,9.61
2019-05-17T06:00:02.028Z,9.74
2019-05-17T06:02:29.552Z,9.71
2019-05-17T06:04:57.654Z,9.67
2019-05-17T06:07:25.818Z,9.76
2019-05-17T06:09:53.959Z,9.80
2019-05-17T06:12:27.187Z,9.79
2019-05-17T06:14:52.459Z,9.76
2019-05-17T06:17:21.598Z,9.79
2019-05-17T06:19:51.692Z,9.78
2019-05-17T06:22:19.734Z,9.77
2019-05-17T06:24:47.842Z,9.83
2019-05-17T06:27:15.979Z,9.97
2019-05-17T06:29:44.106Z,10.00
2019-05-17T06:32:12.241Z,10.03
2019-05-17T06:34:42.223Z,9.98
2019-05-17T06:37:12.720Z,10.09
2019-05-17T06:39:41.970Z,10.16
2019-05-17T06:42:12.092Z,10.24
2019-05-17T06:44:41.769Z,10.13
2019-05-17T06:47:11.967Z,10.31
2019-05-17T06:49:42.222Z,10.20
2019-05-17T06:52:11.639Z,10.44
2019-05-17T06:54:41.767Z,10.63
2019-05-17T06:57:09.706Z,10.71
2019-05-17T06:59:37.923Z,10.86
2019-05-17T07:02:06.122Z,11.03
2019-05-17T07:04:34.380Z,11.05
2019-05-17T07:07:20.847Z,10.88
2019-05-17T07:09:49.686Z,10.88
2019-05-17T07:12:20.227Z,10.72
2019-05-17T07:14:47.891Z,11.00
2019-05-17T07:17:16.026Z,10.99
2019-05-17T07:19:44.170Z,11.10
2019-05-17T07:22:12.346Z,11.39
2019-05-17T07:24:40.470Z,11.52
2019-05-17T07:27:10.004Z,11.64
2019-05-17T07:29:40.374Z,11.53
2019-05-17T07:32:09.822Z,11.55
2019-05-17T07:34:40.152Z,10.99
2019-05-17T07:37:07.505Z,11.65
2019-05-17T07:39:39.280Z,11.94
2019-05-17T07:42:06.393Z,11.76
2019-05-17T07:44:34.607Z,12.03
2019-05-17T07:47:02.740Z,12.15
2019-05-17T07:49:31.093Z,12.12
2019-05-17T07:52:00.734Z,11.11
2019-05-17T07:54:30.313Z,11.12
2019-05-17T07:57:00.248Z,11.82
2019-05-17T07:59:29.429Z,12.20
2019-05-17T08:01:59.694Z,11.71
2019-05-17T08:04:29.922Z,12.34
2019-05-17T08:06:59.782Z,11.99
2019-05-17T08:09:30.071Z,11.88
2019-05-17T08:11:59.752Z,11.92
2019-05-17T08:14:32.918Z,12.55
2019-05-17T08:16:59.907Z,12.74
2019-05-17T08:19:29.750Z,12.23
2019-05-17T08:21:56.846Z,12.60
2019-05-17T08:24:24.969Z,12.58
2019-05-17T08:26:54.545Z,12.35
2019-05-17T08:29:22.713Z,12.55
2019-05-17T08:31:50.869Z,11.96
2019-05-17T08:34:19.881Z,12.77
2019-05-17T08:36:49.853Z,13.01
2019-05-17T08:39:19.809Z,12.80
2019-05-17T08:41:49.772Z,13.08
2019-05-17T08:44:19.250Z,13.16
2019-05-17T08:46:47.507Z,13.33
2019-05-17T08:49:15.670Z,13.27
2019-05-17T08:51:43.825Z,13.00
2019-05-17T08:54:11.947Z,13.29
2019-05-17T08:56:40.500Z,13.09
2019-05-17T08:59:09.635Z,13.26
2019-05-17T09:01:39.256Z,13.65
2019-05-17T09:04:09.281Z,13.67
2019-05-17T09:06:39.586Z,13.40
2019-05-17T09:09:09.982Z,13.68
2019-05-17T09:11:39.553Z,13.79
2019-05-17T09:14:10.312Z,13.82
2019-05-17T09:16:40.103Z,13.74
2019-05-17T09:19:09.946Z,13.81
2019-05-17T09:21:39.587Z,13.93
2019-05-17T09:24:07.365Z,14.25
2019-05-17T09:26:35.532Z,13.95
2019-05-17T09:29:04.321Z,13.86
2019-05-17T09:31:32.479Z,14.10
2019-05-17T09:34:00.632Z,13.43
2019-05-17T09:36:30.349Z,13.68
2019-05-17T09:39:00.122Z,14.31
2019-05-17T09:41:29.368Z,14.63
2019-05-17T09:44:09.505Z,12.48
2019-05-17T09:46:30.076Z,14.52
2019-05-17T09:48:57.467Z,14.86
2019-05-17T09:51:25.656Z,14.04
2019-05-17T09:53:53.789Z,14.73
2019-05-17T09:56:21.937Z,14.57
2019-05-17T09:58:50.046Z,14.03
2019-05-17T10:01:20.757Z,13.93
2019-05-17T10:03:50.528Z,13.85
2019-05-17T10:06:20.069Z,14.49
2019-05-17T10:08:49.517Z,14.80
2019-05-17T10:11:20.083Z,13.56
2019-05-17T10:13:49.515Z,14.49
2019-05-17T10:16:20.037Z,14.62
2019-05-17T10:18:47.550Z,14.57
2019-05-17T10:21:15.668Z,14.74
2019-05-17T10:23:43.806Z,14.44
2019-05-17T10:26:11.922Z,13.97
2019-05-17T10:28:40.180Z,14.69
2019-05-17T10:31:11.651Z,14.65
2019-05-17T10:33:40.097Z,14.95
2019-05-17T10:36:08.552Z,14.66
2019-05-17T10:38:36.794Z,14.63
2019-05-17T10:41:04.944Z,14.76
2019-05-17T10:43:33.052Z,14.73
2019-05-17T10:46:01.201Z,14.31
2019-05-17T10:48:30.033Z,15.14
2019-05-17T10:51:00.412Z,15.02
2019-05-17T10:53:29.712Z,14.75
2019-05-17T10:56:00.430Z,15.33
2019-05-17T10:58:29.687Z,15.48
2019-05-17T11:01:00.587Z,15.63
2019-05-17T11:03:29.664Z,15.67
2019-05-17T11:05:59.748Z,15.78
2019-05-17T11:08:27.828Z,15.93
2019-05-17T11:10:55.963Z,16.01
2019-05-17T11:13:24.154Z,16.22
2019-05-17T11:15:53.245Z,16.11
2019-05-17T11:18:21.351Z,15.85
2019-05-17T11:20:49.543Z,16.38
2019-05-17T11:23:17.661Z,16.22
2019-05-17T11:25:46.701Z,15.71
2019-05-17T11:28:15.158Z,15.78
2019-05-17T11:30:43.284Z,16.42
2019-05-17T11:33:11.462Z,16.17
2019-05-17T11:35:39.646Z,16.17
2019-05-17T11:38:07.809Z,14.97
2019-05-17T11:40:35.981Z,16.19
2019-05-17T11:43:04.081Z,16.52
2019-05-17T11:45:33.012Z,15.79
2019-05-17T11:48:01.372Z,16.19
2019-05-17T11:50:29.591Z,16.35
2019-05-17T11:52:57.779Z,16.35
2019-05-17T11:55:25.906Z,15.63
2019-05-17T11:57:56.237Z,16.54
2019-05-17T12:00:24.431Z,16.39
2019-05-17T12:02:52.569Z,15.65
2019-05-17T12:05:20.766Z,16.52
2019-05-17T12:07:48.966Z,16.85
2019-05-17T12:10:18.903Z,16.80
2019-05-17T12:12:47.041Z,16.85
2019-05-17T12:15:15.393Z,16.65
2019-05-17T12:17:43.595Z,16.42
2019-05-17T12:20:12.131Z,15.92
2019-05-17T12:22:40.431Z,16.28
2019-05-17T12:25:09.640Z,16.48
2019-05-17T12:27:38.021Z,16.25
2019-05-17T12:30:07.547Z,16.67
2019-05-17T12:32:35.780Z,16.84
2019-05-17T12:35:04.365Z,16.22
2019-05-17T12:37:32.642Z,16.66
2019-05-17T12:40:01.019Z,16.46
2019-05-17T12:42:29.294Z,16.44
2019-05-17T12:44:57.481Z,16.95
2019-05-17T12:47:25.770Z,16.92
2019-05-17T12:49:54.085Z,16.35
2019-05-17T12:52:22.192Z,16.49
2019-05-17T12:54:50.310Z,16.14
2019-05-17T12:57:18.449Z,16.14
2019-05-17T12:59:46.586Z,16.61
2019-05-17T13:02:14.880Z,16.93
2019-05-17T13:04:43.035Z,16.86
2019-05-17T13:07:11.248Z,16.86
2019-05-17T13:09:39.402Z,17.06
2019-05-17T13:12:07.528Z,17.06
2019-05-17T13:14:35.686Z,17.35
2019-05-17T13:17:03.954Z,17.35
2019-05-17T13:19:32.156Z,17.75
2019-05-17T13:22:00.243Z,17.75
2019-05-17T13:24:28.443Z,17.56
2019-05-17T13:26:56.567Z,17.32
2019-05-17T13:29:24.692Z,17.37
2019-05-17T13:31:52.843Z,18.26
2019-05-17T13:34:20.995Z,18.49
2019-05-17T13:36:49.108Z,18.21
2019-05-17T13:39:17.280Z,17.04
2019-05-17T13:41:45.389Z,17.69
2019-05-17T13:44:13.557Z,18.60
2019-05-17T13:46:41.770Z,17.96
2019-05-17T13:49:09.929Z,17.92
2019-05-17T13:51:38.047Z,18.48
2019-05-17T13:54:06.278Z,18.36
2019-05-17T13:56:34.527Z,18.76
2019-05-17T13:59:02.799Z,18.74
2019-05-17T14:01:30.906Z,19.16
2019-05-17T14:03:59.012Z,18.14
2019-05-17T14:06:27.142Z,17.97
2019-05-17T14:08:55.327Z,18.86
2019-05-17T14:11:23.450Z,18.95
2019-05-17T14:13:51.688Z,19.22
2019-05-17T14:16:19.921Z,18.50
2019-05-17T14:18:48.168Z,18.28
2019-05-17T14:21:16.361Z,19.14
2019-05-17T14:23:44.549Z,19.07
2019-05-17T14:26:12.712Z,19.27
2019-05-17T14:28:40.888Z,19.00
2019-05-17T14:31:09.051Z,18.72
2019-05-17T14:33:37.244Z,18.55
2019-05-17T14:36:05.409Z,19.17
2019-05-17T14:38:33.629Z,19.43
2019-05-17T14:41:07.914Z,18.95
2019-05-17T14:43:31.791Z,19.27
2019-05-17T14:46:00.146Z,19.50
2019-05-17T14:48:28.263Z,19.59
2019-05-17T14:50:56.418Z,18.52
2019-05-17T14:53:24.564Z,19.06
2019-05-17T14:55:52.703Z,19.18
2019-05-17T14:58:20.924Z,19.09
2019-05-17T15:00:49.086Z,19.12
2019-05-17T15:03:17.339Z,17.82
2019-05-17T15:05:45.582Z,19.19
2019-05-17T15:08:13.841Z,19.24
2019-05-17T15:10:42.082Z,19.23
2019-05-17T15:13:10.289Z,18.92
2019-05-17T15:15:38.479Z,19.40
2019-05-17T15:18:09.456Z,19.39
2019-05-17T15:20:36.511Z,17.69
2019-05-17T15:23:04.808Z,18.05
2019-05-17T15:25:33.068Z,18.78
2019-05-17T15:28:01.183Z,18.87
2019-05-17T15:30:29.333Z,19.19
2019-05-17T15:32:57.455Z,18.59
2019-05-17T15:35:25.889Z,19.03
2019-05-17T15:37:54.111Z,18.50
2019-05-17T15:40:22.480Z,18.87
2019-05-17T15:42:50.649Z,18.72
2019-05-17T15:45:18.787Z,18.64
2019-05-17T15:47:46.939Z,18.17
2019-05-17T15:50:15.213Z,18.63
2019-05-17T15:52:43.351Z,18.46
2019-05-17T15:55:11.700Z,17.42
2019-05-17T15:57:39.912Z,17.89
2019-05-17T16:00:08.954Z,18.37
2019-05-17T16:02:37.138Z,18.42
2019-05-17T16:05:06.811Z,17.96
2019-05-17T16:07:34.998Z,18.28
2019-05-17T16:10:03.192Z,17.59
2019-05-17T16:12:31.334Z,18.25
2019-05-17T16:14:59.465Z,17.59
2019-05-17T16:17:27.659Z,18.01
2019-05-17T16:19:55.836Z,17.97
2019-05-17T16:22:23.940Z,17.39
2019-05-17T16:24:52.077Z,17.09
2019-05-17T16:27:20.247Z,17.72
2019-05-17T16:29:48.355Z,17.48
2019-05-17T16:32:16.553Z,17.58
2019-05-17T16:34:44.658Z,17.28
2019-05-17T16:37:12.810Z,16.93
2019-05-17T16:39:41.114Z,17.09
2019-05-17T16:42:09.254Z,17.41
2019-05-17T16:44:37.416Z,17.62
2019-05-17T16:47:05.676Z,16.94
2019-05-17T16:49:33.836Z,16.79
2019-05-17T16:52:01.951Z,17.11
2019-05-17T16:54:30.306Z,17.59
2019-05-17T16:56:58.668Z,17.43
2019-05-17T16:59:26.831Z,17.58
2019-05-17T17:01:55.441Z,17.35
2019-05-17T17:04:23.499Z,17.88
2019-05-17T17:06:51.682Z,17.68
2019-05-17T17:09:19.986Z,17.65
2019-05-17T17:11:48.190Z,17.85
2019-05-17T17:14:16.394Z,17.94
2019-05-17T17:16:44.569Z,17.94
2019-05-17T17:19:12.714Z,17.93
2019-05-17T17:21:40.818Z,17.71
2019-05-17T17:24:09.125Z,18.05
2019-05-17T17:26:37.265Z,18.24
2019-05-17T17:29:05.702Z,18.31
2019-05-17T17:31:33.894Z,18.29
2019-05-17T17:34:01.984Z,18.43
2019-05-17T17:36:30.201Z,18.32
2019-05-17T17:38:58.363Z,18.31
2019-05-17T17:41:26.964Z,18.33
2019-05-17T17:43:58.680Z,17.52
2019-05-17T17:46:25.192Z,17.51
2019-05-17T17:48:53.315Z,18.06
2019-05-17T17:51:21.472Z,18.05
2019-05-17T17:53:49.812Z,17.86
2019-05-17T17:56:18.065Z,18.09
2019-05-17T17:58:46.285Z,16.48
2019-05-17T18:01:14.443Z,17.73
2019-05-17T18:03:42.558Z,17.55
2019-05-17T18:06:10.658Z,17.34
2019-05-17T18:08:39.172Z,16.81
2019-05-17T18:11:07.425Z,17.10
2019-05-17T18:13:35.628Z,17.46
2019-05-17T18:16:03.866Z,17.49
2019-05-17T18:18:32.274Z,17.48
2019-05-17T18:21:00.402Z,17.32
2019-05-17T18:23:28.516Z,16.78
2019-05-17T18:25:56.784Z,16.99
2019-05-17T18:28:25.006Z,17.03
2019-05-17T18:30:53.117Z,17.22
2019-05-17T18:33:21.370Z,17.08
2019-05-17T18:35:49.535Z,17.02
2019-05-17T18:38:19.850Z,17.13
2019-05-17T18:40:48.177Z,16.81
2019-05-17T18:43:16.405Z,16.84
2019-05-17T18:45:44.609Z,16.95
2019-05-17T18:48:12.854Z,16.42
2019-05-17T18:50:41.006Z,16.49
2019-05-17T18:53:16.489Z,16.34
2019-05-17T18:55:39.157Z,16.50
2019-05-17T18:58:07.346Z,16.33
2019-05-17T19:00:35.725Z,16.27
2019-05-17T19:03:03.883Z,15.99
2019-05-17T19:05:31.998Z,16.09
2019-05-17T19:08:00.123Z,16.03
2019-05-17T19:10:28.462Z,15.78
2019-05-17T19:12:56.561Z,15.83
2019-05-17T19:15:24.811Z,15.18
2019-05-17T19:17:52.975Z,15.51
2019-05-17T19:20:21.151Z,15.51
2019-05-17T19:22:49.515Z,15.47
2019-05-17T19:25:18.289Z,15.30
2019-05-17T19:27:46.498Z,15.26
2019-05-17T19:30:17.037Z,15.17
2019-05-17T19:32:45.231Z,14.99
2019-05-17T19:35:13.571Z,14.84
2019-05-17T19:37:41.719Z,14.10
2019-05-17T19:40:10.461Z,14.10
2019-05-17T19:42:38.580Z,14.46
2019-05-17T19:45:07.550Z,14.32
2019-05-17T19:47:35.723Z,14.39
2019-05-17T19:50:04.176Z,13.18
2019-05-17T19:52:32.291Z,12.44
2019-05-17T19:55:00.416Z,13.46
2019-05-17T19:57:28.611Z,13.82
2019-05-17T19:59:56.754Z,13.68
2019-05-17T20:02:24.935Z,13.78
2019-05-17T20:04:53.081Z,13.78
2019-05-17T20:07:21.296Z,13.85
2019-05-17T20:09:49.474Z,13.85
2019-05-17T20:12:17.582Z,13.73
2019-05-17T20:14:45.770Z,13.63
2019-05-17T20:17:14.056Z,13.57
2019-05-17T20:19:42.291Z,13.50
2019-05-17T20:22:10.417Z,13.44
2019-05-17T20:24:38.530Z,13.35
2019-05-17T20:27:06.727Z,13.21
2019-05-17T20:29:34.821Z,13.19
2019-05-17T20:32:03.356Z,12.89
2019-05-17T20:34:31.688Z,12.92
2019-05-17T20:37:00.731Z,12.88
2019-05-17T20:39:28.954Z,12.87
2019-05-17T20:41:57.604Z,12.76
2019-05-17T20:44:25.819Z,12.70
2019-05-17T20:46:53.996Z,12.66
2019-05-17T20:49:22.136Z,12.57
2019-05-17T20:51:50.306Z,12.52
2019-05-17T20:54:18.484Z,12.44
2019-05-17T20:56:46.576Z,12.39
2019-05-17T20:59:14.707Z,12.27
2019-05-17T21:01:42.836Z,12.23
2019-05-17T21:04:11.095Z,12.10
2019-05-17T21:06:39.439Z,12.05
2019-05-17T21:09:08.472Z,11.94
2019-05-17T21:11:36.708Z,11.91
2019-05-17T21:14:04.836Z,11.80
2019-05-17T21:16:33.044Z,11.76
2019-05-17T21:19:01.437Z,11.66
2019-05-17T21:21:29.670Z,11.59
2019-05-17T21:23:57.817Z,11.51
2019-05-17T21:26:25.995Z,11.47
2019-05-17T21:28:54.140Z,11.37
2019-05-17T21:31:22.343Z,11.28
2019-05-17T21:33:50.753Z,11.23
2019-05-17T21:36:18.966Z,11.15
2019-05-17T21:38:47.178Z,11.05
2019-05-17T21:41:15.334Z,10.72
2019-05-17T21:43:43.664Z,10.69
2019-05-17T21:46:11.860Z,10.21
2019-05-17T21:48:40.027Z,10.40
2019-05-17T21:51:15.604Z,10.52
2019-05-17T21:53:43.775Z,10.65
2019-05-17T21:56:11.965Z,10.60
2019-05-17T21:58:40.165Z,10.54
2019-05-17T22:01:19.071Z,10.40
2019-05-17T22:03:47.423Z,10.40
2019-05-17T22:06:15.589Z,10.38
2019-05-17T22:08:43.804Z,10.31
2019-05-17T22:11:11.940Z,10.26
2019-05-17T22:13:40.047Z,10.18
2019-05-17T22:16:18.961Z,10.11
2019-05-17T22:18:38.211Z,10.08
2019-05-17T22:21:06.470Z,9.97
2019-05-17T22:23:34.587Z,9.95
2019-05-17T22:26:02.793Z,9.91
2019-05-17T22:28:30.981Z,9.85
2019-05-17T22:30:59.067Z,9.80
2019-05-17T22:33:27.335Z,9.71
2019-05-17T22:35:55.459Z,9.63
2019-05-17T22:38:23.609Z,9.56
2019-05-17T22:40:51.911Z,9.47
2019-05-17T22:43:20.037Z,9.43
2019-05-17T22:45:48.182Z,9.41
2019-05-17T22:48:16.281Z,9.36
2019-05-17T22:50:45.277Z,9.31
2019-05-17T22:53:13.631Z,9.25
2019-05-17T22:55:41.765Z,9.17
2019-05-17T22:58:09.895Z,9.14
2019-05-17T23:00:38.019Z,9.10
2019-05-17T23:03:06.169Z,9.08
2019-05-17T23:05:34.393Z,9.06
2019-05-17T23:08:02.487Z,9.00
2019-05-17T23:10:30.649Z,8.95
2019-05-17T23:12:58.775Z,8.91
2019-05-17T23:15:29.121Z,8.84
2019-05-17T23:17:57.313Z,8.80
2019-05-17T23:20:25.495Z,8.73
2019-05-17T23:22:53.615Z,8.69
2019-05-17T23:25:21.752Z,8.64
2019-05-17T23:27:49.929Z,8.60
2019-05-17T23:30:18.054Z,8.59
2019-05-17T23:32:46.201Z,8.53
2019-05-17T23:35:14.322Z,8.51
2019-05-17T23:37:42.514Z,8.46
2019-05-17T23:40:10.850Z,8.50
2019-05-17T23:42:39.010Z,8.49
2019-05-17T23:45:07.944Z,8.44
2019-05-17T23:47:36.064Z,8.41
2019-05-17T23:50:04.810Z,8.39
2019-05-17T23:52:32.993Z,8.36
2019-05-17T23:55:01.168Z,8.23
2019-05-17T23:57:29.263Z,8.23
2019-05-17T23:59:57.377Z,7.75
